Time;durP1;ratioP1;P1;durP2;ratioP2;P2;SDS_P1;SDS_P2;PMS_P1;PMS_P2;Temp;Humidity;BMP_temperature;BMP_pressure;BME280_temperature;BME280_humidity;BME280_pressure;Samples;Min_cycle;Max_cycle;Signal;HPM_P1;HPM_P2
2022/07/08 00:00:29;;;;;;;2.05;0.90;;;12.40;99.90;;;;;;5052227;28;20204;-79
2022/07/08 00:03:00;;;;;;;2.72;0.95;;;12.40;99.90;;;;;;5050935;28;20224;-78
2022/07/08 00:05:31;;;;;;;1.38;0.90;;;12.50;99.90;;;;;;5050488;28;20247;-80
2022/07/08 00:08:01;;;;;;;1.83;1.10;;;12.60;99.90;;;;;;5051887;28;20259;-78
2022/07/08 00:10:32;;;;;;;1.40;0.60;;;12.60;99.90;;;;;;5048397;28;20213;-77
2022/07/08 00:13:05;;;;;;;2.03;0.60;;;12.70;99.90;;;;;;5051921;28;20619;-80
2022/07/08 00:15:35;;;;;;;1.02;0.60;;;12.80;99.90;;;;;;5049764;28;20661;-79
2022/07/08 00:18:06;;;;;;;4.40;0.80;;;12.90;99.90;;;;;;5051917;28;20672;-80
2022/07/08 00:20:37;;;;;;;1.90;0.70;;;13.00;99.90;;;;;;5047997;28;20556;-80
2022/07/08 00:23:07;;;;;;;1.08;0.60;;;13.00;99.90;;;;;;5049306;28;20198;-80
2022/07/08 00:25:38;;;;;;;1.40;0.60;;;13.00;99.90;;;;;;5047703;28;20194;-77
2022/07/08 00:28:11;;;;;;;1.13;0.60;;;13.10;99.90;;;;;;5049542;28;20209;-78
2022/07/08 00:30:42;;;;;;;1.27;0.60;;;13.20;99.90;;;;;;5047490;28;20216;-78
2022/07/08 00:33:13;;;;;;;0.90;0.60;;;13.30;99.90;;;;;;5049839;28;20201;-78
2022/07/08 00:35:43;;;;;;;1.17;0.60;;;13.40;99.90;;;;;;5050811;28;20205;-80
2022/07/08 00:38:14;;;;;;;2.05;0.60;;;13.40;99.90;;;;;;5051501;28;20244;-80
2022/07/08 00:40:45;;;;;;;1.98;0.68;;;13.40;99.90;;;;;;5050351;28;20229;-80
2022/07/08 00:43:35;;;;;;;0.47;0.43;;;13.50;99.90;;;;;;5051619;28;20202;-79
2022/07/08 00:46:10;;;;;;;0.88;0.50;;;13.60;99.90;;;;;;5046006;28;20190;-78
2022/07/08 00:48:41;;;;;;;1.08;0.50;;;13.80;99.90;;;;;;5048805;28;20197;-78
2022/07/08 00:51:15;;;;;;;0.57;0.50;;;13.80;99.90;;;;;;5044673;28;20263;-78
2022/07/08 00:53:48;;;;;;;1.40;0.50;;;13.90;99.90;;;;;;5050254;28;20197;-81
2022/07/08 00:56:19;;;;;;;3.00;0.63;;;13.90;99.90;;;;;;5048003;28;20517;-80
2022/07/08 00:58:52;;;;;;;1.33;0.40;;;14.00;99.90;;;;;;5051575;28;20198;-78
2022/07/08 01:01:23;;;;;;;0.50;0.30;;;14.20;99.90;;;;;;5046505;28;20198;-82
2022/07/08 01:03:53;;;;;;;1.60;0.40;;;14.30;99.90;;;;;;5050294;28;20197;-83
2022/07/08 01:06:24;;;;;;;1.95;0.32;;;14.40;99.90;;;;;;5050191;28;20208;-83
2022/07/08 01:08:55;;;;;;;1.65;0.50;;;14.40;99.90;;;;;;5051308;28;20198;-79
2022/07/08 01:11:26;;;;;;;1.65;0.30;;;14.50;99.90;;;;;;5051828;28;20213;-79
2022/07/08 01:13:58;;;;;;;0.40;0.40;;;14.60;99.90;;;;;;5051371;28;20197;-81
2022/07/08 01:16:29;;;;;;;1.88;0.40;;;14.60;99.90;;;;;;5049790;28;20197;-79
2022/07/08 01:18:59;;;;;;;0.60;0.40;;;14.60;99.90;;;;;;5055120;28;20198;-77
2022/07/08 01:21:32;;;;;;;0.85;0.43;;;14.60;99.90;;;;;;5052319;28;20204;-79
2022/07/08 01:24:03;;;;;;;0.60;0.25;;;14.60;99.90;;;;;;5055361;28;20194;-77
2022/07/08 01:26:33;;;;;;;0.85;0.40;;;14.60;99.90;;;;;;5055108;28;20197;-79
2022/07/08 01:29:04;;;;;;;0.90;0.40;;;14.70;99.90;;;;;;5052257;28;20193;-78
2022/07/08 01:31:35;;;;;;;2.25;0.45;;;14.70;99.90;;;;;;5055180;28;20217;-77
2022/07/08 01:34:05;;;;;;;0.63;0.40;;;14.80;99.90;;;;;;5043451;28;20198;-78
2022/07/08 01:36:38;;;;;;;1.08;0.22;;;14.80;99.90;;;;;;5053750;28;20545;-79
2022/07/08 01:39:09;;;;;;;0.30;0.30;;;14.80;99.90;;;;;;5051172;28;20225;-78
2022/07/08 01:41:39;;;;;;;2.05;0.40;;;14.90;99.90;;;;;;5053552;28;20241;-78
2022/07/08 01:44:10;;;;;;;0.50;0.20;;;15.00;99.90;;;;;;5053651;28;20193;-77
2022/07/08 01:46:41;;;;;;;1.80;0.68;;;15.10;99.90;;;;;;5052838;28;20201;-79
2022/07/08 01:49:14;;;;;;;2.25;0.45;;;15.10;99.90;;;;;;5054472;28;20201;-78
2022/07/08 01:51:46;;;;;;;0.38;0.30;;;15.20;99.90;;;;;;5050845;28;20271;-80
2022/07/08 01:54:17;;;;;;;2.08;0.40;;;15.20;99.90;;;;;;5050446;28;20200;-78
2022/07/08 01:56:48;;;;;;;2.08;0.40;;;15.20;99.90;;;;;;5053062;28;20205;-78
2022/07/08 01:59:18;;;;;;;1.70;0.52;;;15.40;99.90;;;;;;5050030;28;20193;-81
2022/07/08 02:01:49;;;;;;;1.55;0.50;;;15.60;99.90;;;;;;5053713;28;20251;-80
2022/07/08 02:04:20;;;;;;;0.32;0.30;;;15.70;99.90;;;;;;5053882;28;20202;-78
2022/07/08 02:06:52;;;;;;;2.47;0.75;;;15.60;99.90;;;;;;5047956;28;20193;-78
2022/07/08 02:09:23;;;;;;;0.85;0.30;;;15.60;99.90;;;;;;5054384;28;20193;-77
2022/07/08 02:14:40;;;;;;;0.30;0.25;;;15.70;99.90;;;;;;5047416;28;20304;-78
2022/07/08 02:17:11;;;;;;;1.10;0.40;;;15.70;99.90;;;;;;5051972;28;20633;-77
2022/07/08 02:19:41;;;;;;;0.57;0.30;;;15.70;99.90;;;;;;5041063;28;20196;-79
2022/07/08 02:22:15;;;;;;;1.00;0.40;;;15.80;99.90;;;;;;5053272;28;20672;-78
2022/07/08 02:24:47;;;;;;;2.33;0.40;;;15.70;99.90;;;;;;5051226;28;20205;-77
2022/07/08 02:27:18;;;;;;;0.40;0.40;;;15.50;99.90;;;;;;5051915;28;20583;-77
2022/07/08 02:29:49;;;;;;;1.90;0.38;;;15.50;99.90;;;;;;5048271;28;20285;-77
2022/07/08 02:32:19;;;;;;;1.02;0.25;;;15.40;99.90;;;;;;5052328;28;20226;-78
2022/07/08 02:34:50;;;;;;;1.25;0.30;;;15.40;99.90;;;;;;5051336;28;20645;-77
2022/07/08 02:37:22;;;;;;;0.88;0.40;;;15.40;99.90;;;;;;5052424;28;20237;-79
2022/07/08 02:39:53;;;;;;;0.50;0.30;;;15.50;99.90;;;;;;5053379;28;20198;-75
2022/07/08 02:42:24;;;;;;;0.93;0.30;;;15.60;99.90;;;;;;5053102;28;20579;-76
2022/07/08 02:44:55;;;;;;;1.13;0.30;;;15.60;99.90;;;;;;5052428;28;20189;-78
2022/07/08 02:47:25;;;;;;;2.75;0.40;;;15.50;99.90;;;;;;5051070;28;20197;-76
2022/07/08 02:49:56;;;;;;;3.58;0.45;;;15.50;99.90;;;;;;5045760;28;20653;-78
2022/07/08 02:52:28;;;;;;;0.40;0.40;;;15.50;99.90;;;;;;5048578;28;20217;-78
2022/07/08 02:54:59;;;;;;;0.35;0.30;;;15.50;99.90;;;;;;5053942;28;20185;-77
2022/07/08 02:57:30;;;;;;;1.77;0.47;;;15.60;99.90;;;;;;5052647;28;20190;-76
2022/07/08 03:00:00;;;;;;;0.20;0.20;;;15.50;99.90;;;;;;5051014;28;20198;-76
2022/07/08 03:02:31;;;;;;;0.35;0.22;;;15.50;99.90;;;;;;5052490;28;20606;-77
2022/07/08 03:05:02;;;;;;;0.43;0.40;;;15.40;99.90;;;;;;5051992;28;20645;-78
2022/07/08 03:07:34;;;;;;;0.45;0.30;;;15.40;99.90;;;;;;5049394;28;20559;-77
2022/07/08 03:10:05;;;;;;;1.38;0.20;;;15.40;99.90;;;;;;5051528;28;20194;-77
2022/07/08 03:12:35;;;;;;;0.68;0.40;;;15.30;99.90;;;;;;5048581;28;20214;-76
2022/07/08 03:15:06;;;;;;;0.98;0.35;;;15.30;99.90;;;;;;5050080;28;20194;-76
2022/07/08 03:17:37;;;;;;;0.32;0.30;;;15.40;99.90;;;;;;5047820;28;20197;-76
2022/07/08 03:20:08;;;;;;;0.38;0.30;;;15.50;99.90;;;;;;5051253;28;20194;-76
2022/07/08 03:22:41;;;;;;;0.40;0.30;;;15.50;99.90;;;;;;5051265;28;20224;-75
2022/07/08 03:25:12;;;;;;;0.55;0.30;;;15.50;99.90;;;;;;5051660;28;20193;-76
2022/07/08 03:27:42;;;;;;;0.20;0.20;;;15.50;99.90;;;;;;5051225;28;20532;-76
2022/07/08 03:30:13;;;;;;;20.40;12.80;;;15.50;99.90;;;;;;5051515;28;20197;-76
2022/07/08 03:32:44;;;;;;;30.73;18.05;;;15.60;99.90;;;;;;5049721;28;20614;-77
2022/07/08 03:35:15;;;;;;;5.43;3.15;;;15.50;99.90;;;;;;5050822;28;20194;-76
2022/07/08 03:37:48;;;;;;;1.35;0.80;;;15.40;99.90;;;;;;5058621;28;20697;-77
2022/07/08 03:43:06;;;;;;;0.88;0.55;;;15.40;99.90;;;;;;5052900;28;20193;-76
2022/07/08 03:45:36;;;;;;;0.45;0.40;;;15.50;99.90;;;;;;5051126;28;20194;-76
2022/07/08 03:48:07;;;;;;;0.82;0.30;;;15.50;99.90;;;;;;5052943;28;20186;-75
2022/07/08 03:50:38;;;;;;;0.38;0.38;;;15.40;99.90;;;;;;5050814;28;20204;-75
2022/07/08 03:53:11;;;;;;;0.57;0.28;;;15.40;99.90;;;;;;5048680;28;20229;-76
2022/07/08 03:55:41;;;;;;;1.60;0.28;;;15.40;99.90;;;;;;5051577;28;20208;-77
2022/07/08 03:58:12;;;;;;;0.20;0.17;;;15.50;99.90;;;;;;5050412;28;20659;-76
2022/07/08 04:00:43;;;;;;;0.30;0.30;;;15.40;99.90;;;;;;5047885;28;20232;-77
2022/07/08 04:03:14;;;;;;;0.85;0.40;;;15.30;99.90;;;;;;5045439;28;20205;-77
2022/07/08 04:05:44;;;;;;;0.43;0.30;;;15.30;99.90;;;;;;5052111;28;20193;-79
2022/07/08 04:08:17;;;;;;;1.83;0.20;;;15.30;99.90;;;;;;5052407;28;20193;-76
2022/07/08 04:10:47;;;;;;;0.65;0.30;;;15.20;99.90;;;;;;5043264;28;20201;-74
2022/07/08 04:13:18;;;;;;;1.45;0.25;;;15.20;99.90;;;;;;5049098;28;20309;-76
2022/07/08 04:15:49;;;;;;;0.30;0.20;;;15.10;99.90;;;;;;5052124;28;20201;-76
2022/07/08 04:18:19;;;;;;;1.85;0.43;;;15.10;99.90;;;;;;5051153;28;20197;-78
2022/07/08 04:20:50;;;;;;;0.30;0.30;;;15.20;99.90;;;;;;5037575;28;20551;-82
2022/07/08 04:23:23;;;;;;;0.30;0.20;;;15.20;99.90;;;;;;5050910;28;20234;-78
2022/07/08 04:25:53;;;;;;;0.32;0.30;;;15.10;99.90;;;;;;5045468;28;20189;-76
2022/07/08 04:28:24;;;;;;;0.43;0.30;;;15.10;99.90;;;;;;5051791;28;20193;-77
2022/07/08 04:30:55;;;;;;;0.15;0.10;;;15.20;99.90;;;;;;5050964;28;20208;-78
2022/07/08 04:33:26;;;;;;;0.65;0.20;;;15.20;99.90;;;;;;5051565;28;20224;-76
2022/07/08 04:35:57;;;;;;;1.10;0.32;;;15.10;99.90;;;;;;5051158;28;20204;-78
2022/07/08 04:38:30;;;;;;;0.35;0.20;;;15.00;99.90;;;;;;5051328;28;20258;-77
2022/07/08 04:41:01;;;;;;;0.20;0.20;;;15.00;99.90;;;;;;5051001;28;20217;-75
2022/07/08 04:43:31;;;;;;;0.82;0.20;;;15.00;99.90;;;;;;5051321;28;20197;-76
2022/07/08 04:46:02;;;;;;;0.30;0.10;;;14.90;99.90;;;;;;5046537;28;20201;-77
2022/07/08 04:48:33;;;;;;;0.32;0.20;;;14.90;99.90;;;;;;5049121;28;20664;-77
2022/07/08 04:51:03;;;;;;;1.08;0.30;;;14.90;99.90;;;;;;5050726;28;20282;-76
2022/07/08 04:53:36;;;;;;;0.20;0.20;;;14.90;99.90;;;;;;5055258;28;20210;-78
2022/07/08 04:56:07;;;;;;;0.50;0.30;;;15.00;99.90;;;;;;5046965;28;20204;-77
2022/07/08 04:58:38;;;;;;;1.20;0.35;;;15.00;99.90;;;;;;5053164;28;20665;-77
2022/07/08 05:01:08;;;;;;;14.23;8.30;;;15.00;99.90;;;;;;5055178;28;20198;-77
2022/07/08 05:03:39;;;;;;;17.70;9.45;;;15.00;99.90;;;;;;5051440;28;20197;-83
2022/07/08 05:06:10;;;;;;;3.85;2.33;;;15.00;99.90;;;;;;5054250;28;20193;-76
2022/07/08 05:08:42;;;;;;;1.60;0.90;;;15.00;99.90;;;;;;5049531;28;20204;-78
2022/07/08 05:11:13;;;;;;;0.70;0.60;;;15.00;99.90;;;;;;5052874;28;20194;-79
2022/07/08 05:13:44;;;;;;;1.27;0.38;;;15.00;99.90;;;;;;5055522;28;20217;-79
2022/07/08 05:16:14;;;;;;;1.48;0.60;;;14.90;99.90;;;;;;5053905;28;20193;-79
2022/07/08 05:18:45;;;;;;;0.47;0.30;;;14.90;99.90;;;;;;5052033;28;20194;-80
2022/07/08 05:21:16;;;;;;;3.22;0.32;;;14.90;99.90;;;;;;5052865;28;20232;-78
2022/07/08 05:23:48;;;;;;;0.30;0.20;;;14.90;99.90;;;;;;5055659;28;20293;-80
2022/07/08 05:26:19;;;;;;;0.17;0.17;;;14.90;99.90;;;;;;5051054;28;20201;-77
2022/07/08 05:28:50;;;;;;;0.35;0.35;;;14.80;99.90;;;;;;5054199;28;20268;-80
2022/07/08 05:31:20;;;;;;;1.00;0.30;;;14.80;99.90;;;;;;5055257;28;20193;-79
2022/07/08 05:33:51;;;;;;;1.27;0.40;;;14.80;99.90;;;;;;5053141;28;20606;-79
2022/07/08 05:36:21;;;;;;;0.30;0.30;;;14.80;99.90;;;;;;5055290;28;20209;-79
2022/07/08 05:38:54;;;;;;;1.10;0.40;;;14.80;99.90;;;;;;5054568;28;20241;-81
2022/07/08 05:41:25;;;;;;;0.30;0.30;;;14.80;99.90;;;;;;5052232;28;20229;-80
2022/07/08 05:43:55;;;;;;;0.40;0.30;;;14.80;99.90;;;;;;5053327;28;20197;-78
2022/07/08 05:46:26;;;;;;;2.40;0.40;;;14.80;99.90;;;;;;5053495;28;20190;-78
2022/07/08 05:48:57;;;;;;;1.58;0.20;;;14.70;99.90;;;;;;5051899;28;20272;-78
2022/07/08 05:51:27;;;;;;;0.52;0.30;;;14.60;99.90;;;;;;5053883;28;20189;-84
2022/07/08 05:54:00;;;;;;;0.73;0.30;;;14.60;99.90;;;;;;5054426;28;20216;-80
2022/07/08 05:56:31;;;;;;;0.75;0.40;;;14.40;99.90;;;;;;5053675;28;20202;-79
2022/07/08 05:59:01;;;;;;;0.73;0.30;;;14.40;99.90;;;;;;5049359;28;20665;-79
2022/07/08 06:01:32;;;;;;;0.90;0.47;;;14.40;99.90;;;;;;5054772;28;20676;-82
2022/07/08 06:04:02;;;;;;;0.57;0.47;;;14.40;99.90;;;;;;5053402;28;20201;-78
2022/07/08 06:06:33;;;;;;;1.75;0.40;;;14.40;99.90;;;;;;5054818;28;20193;-79
2022/07/08 06:09:06;;;;;;;1.25;0.55;;;14.40;99.90;;;;;;5055847;28;20190;-79
2022/07/08 06:11:37;;;;;;;13.15;8.40;;;14.30;99.90;;;;;;5055569;28;20407;-79
2022/07/08 06:14:07;;;;;;;31.08;18.15;;;14.30;99.90;;;;;;5055582;28;20213;-82
2022/07/08 06:16:38;;;;;;;4.35;2.15;;;14.20;99.90;;;;;;5051224;28;20653;-81
2022/07/08 06:19:08;;;;;;;1.80;0.70;;;14.10;99.90;;;;;;5055277;28;20555;-81
2022/07/08 06:21:39;;;;;;;0.30;0.30;;;14.10;99.90;;;;;;5055198;28;20189;-80
2022/07/08 06:24:12;;;;;;;1.40;0.63;;;14.10;99.90;;;;;;5054544;28;20193;-79
2022/07/08 06:26:43;;;;;;;1.52;0.52;;;14.00;99.90;;;;;;5053187;28;20653;-79
2022/07/08 06:29:14;;;;;;;1.00;0.57;;;13.90;99.90;;;;;;5055516;28;20190;-79
2022/07/08 06:31:45;;;;;;;2.45;0.75;;;13.90;99.90;;;;;;5055827;28;20221;-80
2022/07/08 06:34:15;;;;;;;0.55;0.40;;;13.80;99.90;;;;;;5054912;28;20213;-81
2022/07/08 06:36:46;;;;;;;3.25;0.70;;;13.80;99.90;;;;;;5055164;28;20565;-78
2022/07/08 06:39:18;;;;;;;1.70;0.50;;;13.70;99.90;;;;;;5054866;28;20255;-80
2022/07/08 06:41:49;;;;;;;0.88;0.40;;;13.60;99.90;;;;;;5053910;28;20220;-77
2022/07/08 06:44:20;;;;;;;2.20;0.68;;;13.50;99.90;;;;;;5053179;28;20264;-82
2022/07/08 06:46:50;;;;;;;1.15;0.60;;;13.40;99.90;;;;;;5051788;28;20202;-78
2022/07/08 06:49:21;;;;;;;0.47;0.47;;;13.40;99.90;;;;;;5054456;28;20220;-79
2022/07/08 06:51:52;;;;;;;1.60;0.60;;;13.30;99.90;;;;;;5055804;28;20208;-83
2022/07/08 06:54:39;;;;;;;3.53;0.60;;;13.30;99.90;;;;;;5054739;28;20189;-79
2022/07/08 06:57:11;;;;;;;1.33;0.50;;;13.20;99.90;;;;;;5049047;28;20206;-79
2022/07/08 06:59:42;;;;;;;1.77;0.60;;;13.10;99.90;;;;;;5054620;28;20186;-78
2022/07/08 07:02:12;;;;;;;1.73;1.27;;;13.10;99.90;;;;;;5054655;28;20190;-80
2022/07/08 07:04:43;;;;;;;1.17;0.60;;;13.00;99.90;;;;;;5054449;28;20190;-80
2022/07/08 07:07:14;;;;;;;2.05;0.65;;;12.90;99.90;;;;;;5054438;28;20189;-81
2022/07/08 07:09:46;;;;;;;0.70;0.50;;;12.90;99.90;;;;;;5054520;28;20201;-80
2022/07/08 07:12:17;;;;;;;1.02;0.73;;;12.90;99.90;;;;;;5054167;28;20204;-78
2022/07/08 07:14:47;;;;;;;1.05;0.63;;;12.90;99.90;;;;;;5053735;28;20248;-78
2022/07/08 07:17:20;;;;;;;1.15;0.60;;;12.80;99.90;;;;;;5053734;28;20197;-78
2022/07/08 07:19:52;;;;;;;1.70;0.70;;;12.70;99.90;;;;;;5054186;28;20201;-79
2022/07/08 07:22:22;;;;;;;1.10;0.75;;;12.70;99.90;;;;;;5053051;28;20197;-78
2022/07/08 07:24:55;;;;;;;1.70;0.90;;;12.60;99.90;;;;;;5047213;28;20195;-77
2022/07/08 07:27:25;;;;;;;1.13;0.90;;;12.60;99.90;;;;;;5048993;28;20229;-79
2022/07/08 07:29:56;;;;;;;1.08;0.80;;;12.50;99.90;;;;;;5052879;28;20190;-78
2022/07/08 07:32:27;;;;;;;1.50;0.90;;;12.50;99.90;;;;;;5053865;28;20210;-77
2022/07/08 07:34:57;;;;;;;1.83;1.00;;;12.50;99.90;;;;;;5053452;28;20197;-77
2022/07/08 07:37:28;;;;;;;1.23;1.02;;;12.40;99.90;;;;;;5053595;28;20225;-78
2022/07/08 07:40:00;;;;;;;2.50;1.10;;;12.40;99.90;;;;;;5053408;28;20197;-77
2022/07/08 07:42:31;;;;;;;1.00;0.77;;;12.40;99.90;;;;;;5053775;28;20229;-79
2022/07/08 07:45:03;;;;;;;1.40;0.73;;;12.30;99.90;;;;;;5053921;28;20201;-83
2022/07/08 07:47:34;;;;;;;0.77;0.70;;;12.30;99.90;;;;;;5053257;28;20677;-79
2022/07/08 07:50:05;;;;;;;0.80;0.63;;;12.30;99.90;;;;;;5053635;28;20196;-78
2022/07/08 07:52:35;;;;;;;2.25;0.60;;;12.20;99.90;;;;;;5053532;28;20566;-79
2022/07/08 07:55:09;;;;;;;0.98;0.55;;;12.20;99.90;;;;;;5053340;28;20582;-82
2022/07/08 07:57:40;;;;;;;1.42;0.80;;;12.20;99.90;;;;;;5052958;28;20225;-81
2022/07/08 08:00:11;;;;;;;1.17;0.60;;;12.20;99.90;;;;;;5053608;28;20197;-80
2022/07/08 08:02:42;;;;;;;0.50;0.50;;;12.20;99.90;;;;;;5053132;28;20194;-80
2022/07/08 08:05:13;;;;;;;2.10;0.70;;;12.20;99.90;;;;;;5053636;28;20525;-79
2022/07/08 08:07:44;;;;;;;1.20;0.73;;;12.20;99.90;;;;;;5047759;28;20239;-78
2022/07/08 08:10:17;;;;;;;0.80;0.80;;;12.20;99.90;;;;;;5072736;28;20567;-80
2022/07/08 08:12:47;;;;;;;1.08;0.70;;;12.20;99.90;;;;;;5053398;28;20217;-79
2022/07/08 08:15:18;;;;;;;1.17;0.90;;;12.20;99.90;;;;;;5052950;28;20197;-79
2022/07/08 08:17:48;;;;;;;0.65;0.60;;;12.10;99.90;;;;;;5052409;28;20550;-79
2022/07/08 08:20:19;;;;;;;0.98;0.68;;;12.10;99.90;;;;;;5053100;28;20201;-79
2022/07/08 08:22:50;;;;;;;1.17;0.80;;;12.10;99.90;;;;;;5052910;28;20186;-80
2022/07/08 08:25:23;;;;;;;2.45;0.95;;;12.10;99.90;;;;;;5048406;28;20194;-81
2022/07/08 08:27:54;;;;;;;2.15;0.90;;;12.00;99.90;;;;;;5052901;28;20186;-81
2022/07/08 08:30:24;;;;;;;2.17;0.75;;;12.00;99.90;;;;;;5053056;28;20191;-81
2022/07/08 08:32:55;;;;;;;1.95;0.98;;;12.00;99.90;;;;;;5050047;28;20217;-81
2022/07/08 08:35:26;;;;;;;2.10;1.13;;;12.00;99.90;;;;;;5037464;28;20200;-79
2022/07/08 08:37:57;;;;;;;1.00;0.90;;;11.90;99.90;;;;;;5047724;28;20229;-79
2022/07/08 08:40:32;;;;;;;1.95;0.80;;;11.90;99.90;;;;;;5048942;28;20307;-79
2022/07/08 08:43:03;;;;;;;1.30;0.70;;;11.90;99.90;;;;;;5048901;28;20577;-81
2022/07/08 08:45:35;;;;;;;1.88;0.90;;;11.90;99.90;;;;;;5051901;28;20198;-80
2022/07/08 08:48:09;;;;;;;1.45;0.80;;;11.90;99.90;;;;;;5047822;28;20193;-79
2022/07/08 08:50:58;;;;;;;1.23;0.80;;;11.90;99.90;;;;;;5048611;28;20232;-82
2022/07/08 08:53:33;;;;;;;1.02;0.73;;;11.90;99.90;;;;;;5052954;28;20259;-80
2022/07/08 08:56:06;;;;;;;2.65;0.80;;;11.90;99.90;;;;;;5050431;28;20201;-80
2022/07/08 08:58:38;;;;;;;1.55;0.80;;;11.90;99.90;;;;;;5048621;28;20194;-80
2022/07/08 09:01:10;;;;;;;1.42;0.80;;;11.80;99.90;;;;;;5047847;28;20195;-79
2022/07/08 09:03:41;;;;;;;1.90;0.77;;;11.80;99.90;;;;;;5052215;28;20201;-79
2022/07/08 09:06:13;;;;;;;2.72;0.90;;;11.80;99.90;;;;;;5046162;28;20216;-80
2022/07/08 09:08:43;;;;;;;2.40;0.82;;;11.80;99.90;;;;;;5049864;28;20204;-78
2022/07/08 09:11:17;;;;;;;3.20;0.80;;;11.80;99.90;;;;;;5050822;28;20255;-79
2022/07/08 09:13:49;;;;;;;0.90;0.70;;;11.80;99.90;;;;;;5049150;28;20220;-80
2022/07/08 09:16:20;;;;;;;2.05;0.80;;;11.70;99.90;;;;;;5052438;28;20665;-79
2022/07/08 09:18:51;;;;;;;3.53;1.00;;;11.70;99.90;;;;;;5051335;28;20247;-79
2022/07/08 09:21:31;;;;;;;2.50;1.10;;;11.70;99.90;;;;;;5050791;28;20216;-79
2022/07/08 09:24:18;;;;;;;1.65;0.90;;;11.70;99.90;;;;;;5048798;28;20200;-79
2022/07/08 09:26:51;;;;;;;1.60;0.98;;;11.70;99.90;;;;;;5046835;28;20197;-78
2022/07/08 09:29:21;;;;;;;2.70;0.90;;;11.60;99.90;;;;;;5047282;28;20949;-81
2022/07/08 09:31:52;;;;;;;1.27;0.88;;;11.70;99.90;;;;;;5052335;28;20586;-80
2022/07/08 09:34:24;;;;;;;3.05;1.00;;;11.60;99.90;;;;;;5052213;28;20217;-80
2022/07/08 09:36:55;;;;;;;1.45;1.00;;;11.60;99.90;;;;;;5050280;28;20613;-80
2022/07/08 09:39:30;;;;;;;3.65;1.00;;;11.50;99.90;;;;;;5052209;28;20197;-79
2022/07/08 09:42:02;;;;;;;1.35;0.73;;;11.50;99.90;;;;;;5054103;28;20196;-79
2022/07/08 09:44:33;;;;;;;1.35;0.90;;;11.50;99.90;;;;;;5055753;28;20194;-78
2022/07/08 09:47:10;;;;;;;1.55;0.90;;;11.50;99.90;;;;;;5054793;28;20198;-79
2022/07/08 09:49:43;;;;;;;1.38;0.90;;;11.50;99.90;;;;;;5048107;28;20198;-79
2022/07/08 09:52:21;;;;;;;1.40;1.00;;;11.50;99.90;;;;;;5052496;28;20225;-79
2022/07/08 09:55:03;;;;;;;2.80;1.00;;;11.50;99.90;;;;;;5054298;28;20217;-79
2022/07/08 09:57:37;;;;;;;1.88;1.00;;;11.40;99.90;;;;;;5055965;28;20228;-81
2022/07/08 10:00:08;;;;;;;0.88;0.80;;;11.40;99.90;;;;;;5048097;28;20194;-78
2022/07/08 10:02:39;;;;;;;2.67;1.40;;;11.40;99.90;;;;;;5052183;28;20193;-78
2022/07/08 10:05:10;;;;;;;1.77;1.10;;;11.40;99.90;;;;;;5055858;28;20205;-78
2022/07/08 10:07:41;;;;;;;3.38;1.40;;;11.40;99.90;;;;;;5055306;28;20605;-80
2022/07/08 10:10:13;;;;;;;2.55;1.60;;;11.40;99.90;;;;;;5053371;28;20566;-81
2022/07/08 10:12:46;;;;;;;4.95;1.70;;;11.40;99.90;;;;;;5054155;28;20212;-81
2022/07/08 10:15:19;;;;;;;3.35;1.63;;;11.30;99.90;;;;;;5053827;28;20224;-80
2022/07/08 10:17:50;;;;;;;3.53;1.80;;;11.30;99.90;;;;;;5052759;28;20276;-80
2022/07/08 10:20:23;;;;;;;3.83;1.65;;;11.20;99.90;;;;;;5054979;28;20198;-80
2022/07/08 10:22:59;;;;;;;6.45;2.05;;;11.20;99.90;;;;;;5053707;28;20193;-80
2022/07/08 10:25:31;;;;;;;5.88;1.83;;;11.10;99.90;;;;;;5054629;28;20208;-79
2022/07/08 10:28:12;;;;;;;2.88;2.00;;;11.10;99.90;;;;;;5051146;28;20197;-80
2022/07/08 10:30:57;;;;;;;2.92;1.70;;;11.00;99.90;;;;;;5047566;28;20233;-79
2022/07/08 10:33:36;;;;;;;3.58;2.00;;;10.90;99.90;;;;;;5046237;28;20236;-80
2022/07/08 10:36:09;;;;;;;3.75;1.60;;;10.90;99.90;;;;;;5049474;28;20225;-80
2022/07/08 10:38:41;;;;;;;2.55;1.73;;;10.90;99.90;;;;;;5051502;28;20226;-80
2022/07/08 10:41:13;;;;;;;2.53;1.38;;;10.90;99.90;;;;;;5053302;28;20688;-82
2022/07/08 10:43:55;;;;;;;1.88;1.30;;;10.80;99.90;;;;;;5052922;28;20211;-80
2022/07/08 10:46:28;;;;;;;3.10;1.52;;;10.80;99.90;;;;;;5035033;28;20558;-81
2022/07/08 10:49:00;;;;;;;2.47;1.30;;;10.90;99.90;;;;;;5041726;28;20580;-81
2022/07/08 10:52:05;;;;;;;1.52;1.30;;;10.90;99.90;;;;;;5052544;28;20209;-81
2022/07/08 10:54:39;;;;;;;3.53;1.40;;;10.80;99.90;;;;;;5054070;28;20220;-80
2022/07/08 10:57:29;;;;;;;3.88;1.38;;;10.80;99.90;;;;;;5047095;28;20197;-81
2022/07/08 11:00:11;;;;;;;1.60;1.13;;;10.80;99.90;;;;;;5051406;28;20210;-82
2022/07/08 11:02:46;;;;;;;2.75;1.48;;;10.80;99.90;;;;;;5052600;28;20229;-82
2022/07/08 11:05:38;;;;;;;1.52;1.20;;;10.80;99.90;;;;;;5052884;28;20200;-82
2022/07/08 11:08:28;;;;;;;3.65;1.40;;;10.80;99.90;;;;;;5049114;28;20204;-82
2022/07/08 11:10:59;;;;;;;1.65;1.20;;;10.80;99.90;;;;;;5050619;28;20208;-83
2022/07/08 11:13:30;;;;;;;2.33;1.25;;;10.80;99.90;;;;;;5049106;28;20197;-83
2022/07/08 11:16:05;;;;;;;2.13;1.38;;;10.70;99.90;;;;;;5049153;28;20198;-82
2022/07/08 11:18:36;;;;;;;2.67;1.48;;;10.70;99.90;;;;;;5053280;28;20629;-81
2022/07/08 11:21:06;;;;;;;4.10;1.60;;;10.70;99.90;;;;;;5049207;28;20194;-80
2022/07/08 11:23:37;;;;;;;3.15;1.50;;;10.70;99.90;;;;;;5051547;28;20212;-81
2022/07/08 11:26:08;;;;;;;2.35;1.63;;;10.70;99.90;;;;;;5052712;28;20189;-79
2022/07/08 11:28:40;;;;;;;3.75;2.10;;;10.70;99.90;;;;;;5044830;28;20201;-80
2022/07/08 11:31:27;;;;;;;4.20;2.00;;;10.70;99.90;;;;;;5046482;28;20194;-78
2022/07/08 11:33:58;;;;;;;3.08;2.00;;;10.60;99.90;;;;;;5042387;28;20205;-80
2022/07/08 11:36:29;;;;;;;4.25;2.30;;;10.60;99.90;;;;;;5048299;28;20255;-82
2022/07/08 11:39:06;;;;;;;3.65;1.83;;;10.60;99.90;;;;;;5051066;28;20635;-78
2022/07/08 11:41:43;;;;;;;2.63;1.85;;;10.60;99.90;;;;;;5051130;28;20240;-81
2022/07/08 11:44:18;;;;;;;2.92;1.85;;;10.60;99.90;;;;;;5052283;28;20201;-82
2022/07/08 11:46:52;;;;;;;2.50;1.73;;;10.50;99.90;;;;;;5050029;28;20190;-81
2022/07/08 11:49:24;;;;;;;3.63;2.00;;;10.50;99.90;;;;;;5050779;28;20684;-80
2022/07/08 11:51:55;;;;;;;2.67;1.40;;;10.50;99.90;;;;;;5052927;28;20193;-80
2022/07/08 11:54:27;;;;;;;3.10;1.67;;;10.50;99.90;;;;;;5050787;28;20221;-81
2022/07/08 11:56:58;;;;;;;2.95;1.75;;;10.50;99.90;;;;;;5051896;28;20197;-82
2022/07/08 11:59:29;;;;;;;3.20;1.80;;;10.40;99.90;;;;;;5048805;28;20205;-79
2022/07/08 12:02:03;;;;;;;3.30;1.80;;;10.40;99.90;;;;;;5045408;28;20656;-82
2022/07/08 12:04:35;;;;;;;4.35;1.90;;;10.40;99.90;;;;;;5052105;28;20190;-80
2022/07/08 12:07:20;;;;;;;3.47;2.10;;;10.30;99.90;;;;;;5052679;28;20198;-81
2022/07/08 12:09:57;;;;;;;3.40;2.00;;;10.30;99.90;;;;;;5048164;28;20197;-81
2022/07/08 12:12:29;;;;;;;6.45;2.38;;;10.30;99.90;;;;;;5053050;28;20185;-80
2022/07/08 12:15:11;;;;;;;3.63;2.30;;;10.20;99.90;;;;;;5052962;28;20224;-79
2022/07/08 12:17:44;;;;;;;3.40;2.00;;;10.20;99.90;;;;;;5050923;28;20193;-82
2022/07/08 12:20:14;;;;;;;3.15;1.90;;;10.20;99.90;;;;;;5049998;28;20205;-79
2022/07/08 12:22:49;;;;;;;4.18;2.13;;;10.20;99.90;;;;;;5049468;28;20244;-80
2022/07/08 12:25:20;;;;;;;4.45;2.20;;;10.20;99.90;;;;;;5048810;28;20200;-82
2022/07/08 12:28:00;;;;;;;3.97;2.00;;;10.20;99.90;;;;;;5048699;28;20565;-79
2022/07/08 12:30:32;;;;;;;5.30;1.90;;;10.10;99.90;;;;;;5050577;28;20604;-82
2022/07/08 12:33:05;;;;;;;5.03;1.98;;;10.20;99.90;;;;;;5049431;28;20201;-80
2022/07/08 12:35:36;;;;;;;4.97;1.63;;;10.10;99.90;;;;;;5051057;28;20217;-81
2022/07/08 12:38:08;;;;;;;1.98;1.42;;;10.20;99.90;;;;;;5048607;28;20237;-80
2022/07/08 12:40:42;;;;;;;1.67;1.33;;;10.20;99.90;;;;;;5051596;28;20213;-80
2022/07/08 12:43:14;;;;;;;2.13;0.85;;;10.20;99.90;;;;;;5050796;28;20197;-80
2022/07/08 12:45:45;;;;;;;2.03;0.93;;;10.30;99.90;;;;;;5051238;28;20189;-80
2022/07/08 12:48:17;;;;;;;1.75;1.05;;;10.40;99.90;;;;;;5052093;28;20186;-80
2022/07/08 12:50:51;;;;;;;4.05;1.00;;;10.50;99.90;;;;;;5050357;28;20201;-80
2022/07/08 12:53:22;;;;;;;3.00;0.95;;;10.50;99.90;;;;;;5048077;28;20198;-79
2022/07/08 12:55:52;;;;;;;2.95;0.90;;;10.50;99.90;;;;;;5045243;28;20579;-80
2022/07/08 12:58:24;;;;;;;5.40;1.00;;;10.60;99.90;;;;;;5047858;28;20202;-80
2022/07/08 13:00:55;;;;;;;1.73;0.98;;;10.60;99.90;;;;;;5046494;28;20284;-78
2022/07/08 13:03:27;;;;;;;1.88;1.10;;;10.60;99.90;;;;;;5050845;28;20216;-79
2022/07/08 13:05:58;;;;;;;3.90;1.10;;;10.60;99.90;;;;;;5050270;28;20206;-79
2022/07/08 13:08:29;;;;;;;1.02;0.90;;;10.60;99.90;;;;;;5049875;28;20225;-79
2022/07/08 13:10:59;;;;;;;1.17;0.95;;;10.60;99.90;;;;;;5049485;28;20207;-80
2022/07/08 13:13:30;;;;;;;1.95;1.00;;;10.60;99.90;;;;;;5049786;28;20201;-80
2022/07/08 13:16:01;;;;;;;2.53;1.20;;;10.60;99.90;;;;;;5054672;28;20216;-81